RJTT(TAF)
8/13 2h
TAF RJTT 121705Z 1218/1400 18018KT 9999 FEW010 BKN025 TEMPO
1303/1306 19025G35KT 3000 SHRA BR FEW005 BKN008 BECMG
1306/1309 19032KT TEMPO 1306/1312 19040G50KT 1500 +TSRA BR
FEW003 BKN005 SCT020CB TEMPO 1312/1315 21030G40KT 3000 SHRA
BR FEW005 BKN008 BECMG 1315/1318 22018KT=
戻る
トップページへ戻る
IMOC Co,.Ltd.